createdAt,value
2022-09-14T00:02:55.899Z,2.45
2022-09-14T00:08:01.674Z,4.18
2022-09-14T00:13:09.957Z,2.55
2022-09-14T00:18:15.834Z,2.67
2022-09-14T00:23:21.700Z,2.95
2022-09-14T00:28:29.153Z,3.20
2022-09-14T00:33:35.341Z,2.30
2022-09-14T00:38:42.126Z,3.00
2022-09-14T00:43:58.874Z,3.22
2022-09-14T00:49:09.136Z,3.75
2022-09-14T00:54:15.034Z,2.95
2022-09-14T00:59:28.379Z,4.35
2022-09-14T01:04:34.390Z,5.63
2022-09-14T01:09:52.387Z,2.70
2022-09-14T01:15:11.261Z,4.13
2022-09-14T01:20:27.273Z,4.22
2022-09-14T01:26:16.970Z,3.90
2022-09-14T01:31:32.480Z,5.25
2022-09-14T01:36:43.361Z,4.05
2022-09-14T01:41:51.589Z,5.68
2022-09-14T01:47:06.563Z,3.83
2022-09-14T01:52:20.422Z,4.35
2022-09-14T01:57:32.187Z,3.83
2022-09-14T02:02:44.111Z,5.65
2022-09-14T02:07:50.275Z,5.50
2022-09-14T02:12:57.309Z,5.50
2022-09-14T02:18:05.849Z,6.15
2022-09-14T02:23:11.969Z,7.07
2022-09-14T02:28:17.974Z,7.15
2022-09-14T02:33:32.778Z,8.68
2022-09-14T02:38:47.936Z,7.25
2022-09-14T02:44:09.189Z,8.55
2022-09-14T02:49:25.725Z,8.02
2022-09-14T02:54:38.168Z,8.10
2022-09-14T02:59:44.237Z,7.85
2022-09-14T03:04:51.919Z,8.85
2022-09-14T03:09:58.098Z,8.55
2022-09-14T03:15:03.984Z,9.65
2022-09-14T03:20:11.977Z,10.68
2022-09-14T03:25:19.326Z,8.27
2022-09-14T03:30:25.410Z,10.43
2022-09-14T03:35:33.777Z,11.13
2022-09-14T03:40:41.318Z,9.55
2022-09-14T03:45:47.238Z,12.82
2022-09-14T03:50:54.719Z,10.93
2022-09-14T03:56:00.591Z,10.63
2022-09-14T04:01:07.879Z,11.85
2022-09-14T04:06:16.320Z,10.73
2022-09-14T04:11:24.690Z,9.95
2022-09-14T04:16:31.167Z,9.07
2022-09-14T04:21:38.411Z,7.63
2022-09-14T04:26:45.086Z,9.27
2022-09-14T04:31:50.948Z,6.53
2022-09-14T04:36:58.152Z,8.77
2022-09-14T04:42:04.222Z,9.98
2022-09-14T04:47:10.353Z,8.95
2022-09-14T04:52:17.823Z,9.40
2022-09-14T04:57:23.611Z,11.75
2022-09-14T05:02:31.333Z,14.50
2022-09-14T05:07:38.718Z,12.38
2022-09-14T05:12:44.941Z,8.48
2022-09-14T05:17:50.969Z,9.57
2022-09-14T05:22:58.303Z,10.70
2022-09-14T05:28:05.233Z,12.88
2022-09-14T05:33:11.225Z,11.68
2022-09-14T05:38:19.068Z,15.98
2022-09-14T05:43:25.084Z,13.88
2022-09-14T05:48:33.938Z,15.63
2022-09-14T05:58:47.859Z,16.70
2022-09-14T06:03:56.609Z,15.23
2022-09-14T06:09:05.150Z,17.85
2022-09-14T06:14:11.062Z,14.48
2022-09-14T06:19:18.047Z,19.30
2022-09-14T06:24:25.518Z,14.93
2022-09-14T06:29:31.745Z,15.50
2022-09-14T06:34:37.757Z,16.45
2022-09-14T06:39:45.277Z,14.20
2022-09-14T06:44:51.024Z,16.75
2022-09-14T06:49:57.041Z,16.23
2022-09-14T06:55:04.902Z,19.27
2022-09-14T07:00:12.729Z,16.40
2022-09-14T07:05:21.376Z,12.18
2022-09-14T07:10:29.180Z,13.18
2022-09-14T07:15:35.087Z,14.45
2022-09-14T07:20:41.122Z,13.25
2022-09-14T07:25:48.633Z,12.02
2022-09-14T07:30:58.868Z,12.38
2022-09-14T07:36:08.936Z,13.50
2022-09-14T07:41:16.192Z,9.52
2022-09-14T07:46:23.236Z,10.88
2022-09-14T07:51:30.952Z,10.27
2022-09-14T07:56:38.271Z,8.90
2022-09-14T08:01:45.312Z,9.85
2022-09-14T08:06:51.234Z,9.60
2022-09-14T08:11:58.961Z,8.63
2022-09-14T08:17:05.424Z,9.05
2022-09-14T08:22:11.232Z,9.98
2022-09-14T08:27:18.488Z,6.57
2022-09-14T08:32:24.988Z,8.00
2022-09-14T08:37:30.954Z,27.23
2022-09-14T08:42:41.342Z,8.38
2022-09-14T08:47:47.393Z,8.95
2022-09-14T08:52:55.146Z,5.35
2022-09-14T08:58:09.655Z,6.30
2022-09-14T09:04:02.858Z,6.78
2022-09-14T09:09:17.542Z,6.50
2022-09-14T09:14:32.951Z,4.75
2022-09-14T09:19:46.409Z,4.85
2022-09-14T09:24:56.844Z,3.95
2022-09-14T09:30:04.446Z,4.40
2022-09-14T09:35:15.668Z,5.80
2022-09-14T09:40:36.932Z,6.28
2022-09-14T09:45:59.588Z,5.53
2022-09-14T09:51:12.622Z,8.25
2022-09-14T09:56:24.202Z,5.55
2022-09-14T10:01:33.972Z,4.25
2022-09-14T10:06:45.218Z,3.47
2022-09-14T10:12:00.328Z,5.03
2022-09-14T10:17:20.721Z,5.75
2022-09-14T10:22:31.312Z,5.20
2022-09-14T10:27:42.214Z,3.88
2022-09-14T10:33:02.477Z,5.25
2022-09-14T10:38:32.614Z,2.92
2022-09-14T10:44:04.399Z,2.50
2022-09-14T10:49:41.230Z,2.25
2022-09-14T10:55:24.566Z,2.78
2022-09-14T11:00:37.706Z,4.65
2022-09-14T11:05:56.761Z,5.28
2022-09-14T11:16:52.461Z,1.67
2022-09-14T11:22:09.602Z,4.30
2022-09-14T11:27:25.498Z,2.25
2022-09-14T11:32:36.508Z,2.63
2022-09-14T11:37:48.741Z,2.78
2022-09-14T11:43:02.624Z,3.90
2022-09-14T11:53:46.664Z,3.40
2022-09-14T11:58:54.681Z,2.42
2022-09-14T12:04:13.761Z,2.93
2022-09-14T12:10:19.122Z,5.07
2022-09-14T12:15:35.982Z,2.35
2022-09-14T12:20:45.191Z,3.38
2022-09-14T12:26:15.162Z,4.05
2022-09-14T12:32:03.577Z,4.57
2022-09-14T12:37:32.977Z,3.28
2022-09-14T12:42:40.572Z,2.83
2022-09-14T12:47:55.495Z,4.03
2022-09-14T12:53:29.324Z,2.63
2022-09-14T12:59:00.885Z,2.95
2022-09-14T13:04:14.591Z,3.45
2022-09-14T13:09:24.395Z,3.00
2022-09-14T13:14:35.442Z,2.33
2022-09-14T13:19:41.488Z,6.07
2022-09-14T13:24:49.887Z,3.63
2022-09-14T13:30:08.757Z,2.53
2022-09-14T13:35:21.966Z,4.68
2022-09-14T13:40:31.533Z,2.15
2022-09-14T13:45:39.907Z,2.05
2022-09-14T13:55:54.578Z,3.60
2022-09-14T14:01:05.155Z,2.65
2022-09-14T14:06:27.362Z,4.15
2022-09-14T14:11:37.222Z,3.70
2022-09-14T14:16:59.917Z,4.90
2022-09-14T14:22:21.786Z,2.35
2022-09-14T14:27:34.786Z,3.33
2022-09-14T14:32:42.172Z,4.90
2022-09-14T14:37:49.010Z,1.45
2022-09-14T14:42:56.044Z,3.60
2022-09-14T14:48:05.273Z,2.17
2022-09-14T14:53:13.501Z,2.45
2022-09-14T14:58:23.124Z,3.47
2022-09-14T15:03:31.808Z,3.42
2022-09-14T15:08:37.851Z,3.08
2022-09-14T15:13:43.526Z,4.13
2022-09-14T15:18:50.816Z,5.18
2022-09-14T15:23:56.734Z,3.55
2022-09-14T15:29:04.866Z,2.58
2022-09-14T15:34:12.235Z,2.23
2022-09-14T15:39:19.339Z,4.38
2022-09-14T15:44:27.047Z,2.22
2022-09-14T15:49:34.768Z,6.05
2022-09-14T15:54:41.231Z,1.70
2022-09-14T15:59:47.308Z,4.15
2022-09-14T16:04:54.635Z,3.38
2022-09-14T16:10:00.660Z,3.53
2022-09-14T16:15:08.137Z,2.10
2022-09-14T16:20:15.900Z,3.42
2022-09-14T16:25:21.913Z,5.50
2022-09-14T16:30:28.045Z,2.22
2022-09-14T16:35:35.391Z,9.50
2022-09-14T16:40:43.388Z,3.47
2022-09-14T16:45:49.280Z,2.43
2022-09-14T16:50:57.461Z,2.30
2022-09-14T16:56:05.906Z,6.53
2022-09-14T17:01:15.951Z,7.78
2022-09-14T17:06:26.044Z,8.45
2022-09-14T17:11:35.481Z,12.18
2022-09-14T17:16:41.717Z,7.63
2022-09-14T17:21:50.521Z,7.50
2022-09-14T17:32:02.341Z,14.18
2022-09-14T17:37:09.862Z,9.07
2022-09-14T17:42:15.851Z,9.27
2022-09-14T17:47:21.758Z,7.90
2022-09-14T17:52:29.504Z,9.30
2022-09-14T17:57:36.697Z,5.65
2022-09-14T18:02:43.207Z,8.68
2022-09-14T18:07:51.939Z,15.30
2022-09-14T18:18:04.239Z,13.27
2022-09-14T18:23:11.981Z,18.60
2022-09-14T18:28:18.886Z,16.83
2022-09-14T18:33:25.151Z,21.10
2022-09-14T18:38:33.343Z,11.88
2022-09-14T18:43:40.037Z,11.33
2022-09-14T18:48:46.565Z,13.10
2022-09-14T18:54:00.670Z,17.65
2022-09-14T18:59:16.801Z,20.52
2022-09-14T19:04:23.189Z,16.08
2022-09-14T19:09:32.469Z,19.13
2022-09-14T19:14:41.711Z,20.75
2022-09-14T19:19:48.122Z,17.83
2022-09-14T19:24:55.603Z,18.58
2022-09-14T19:30:02.598Z,22.77
2022-09-14T19:35:12.487Z,20.75
2022-09-14T19:40:20.134Z,21.63
2022-09-14T19:45:26.492Z,15.88
2022-09-14T19:50:33.037Z,18.17
2022-09-14T19:55:41.134Z,11.15
2022-09-14T20:00:47.842Z,12.48
2022-09-14T20:06:02.580Z,10.85
2022-09-14T20:11:16.623Z,14.13
2022-09-14T20:16:29.980Z,11.55
2022-09-14T20:21:38.158Z,13.35
2022-09-14T20:26:45.916Z,13.93
2022-09-14T20:31:52.838Z,14.13
2022-09-14T20:37:00.444Z,15.73
2022-09-14T20:42:08.524Z,13.68
2022-09-14T20:47:14.523Z,12.23
2022-09-14T20:52:20.901Z,17.67
2022-09-14T20:57:28.431Z,19.48
2022-09-14T21:02:34.353Z,24.45
2022-09-14T21:07:40.421Z,19.30
2022-09-14T21:12:48.035Z,20.02
2022-09-14T21:17:57.205Z,11.05
2022-09-14T21:23:03.337Z,15.85
2022-09-14T21:28:10.841Z,16.08
2022-09-14T21:33:17.099Z,12.52
2022-09-14T21:38:22.874Z,13.80
2022-09-14T21:43:30.839Z,15.65
2022-09-14T21:48:37.986Z,14.07
2022-09-14T21:53:47.579Z,12.27
2022-09-14T21:58:57.276Z,16.63
2022-09-14T22:04:03.815Z,17.90
2022-09-14T22:09:10.236Z,16.90
2022-09-14T22:14:19.662Z,15.77
2022-09-14T22:19:28.972Z,17.23
2022-09-14T22:24:38.937Z,15.70
2022-09-14T22:29:46.734Z,16.48
2022-09-14T22:34:52.744Z,19.95
2022-09-14T22:39:58.614Z,18.13
2022-09-14T22:45:07.148Z,16.65
2022-09-14T22:50:13.551Z,21.30
2022-09-14T22:55:19.515Z,16.65
2022-09-14T23:00:27.218Z,20.42
2022-09-14T23:05:33.105Z,19.75
2022-09-14T23:10:39.439Z,17.23
2022-09-14T23:15:47.684Z,16.73
2022-09-14T23:20:53.492Z,16.70
2022-09-14T23:26:05.824Z,13.77
2022-09-14T23:31:13.205Z,15.63
2022-09-14T23:36:19.667Z,14.30
2022-09-14T23:41:28.459Z,11.60
2022-09-14T23:46:36.861Z,16.98
2022-09-14T23:51:43.566Z,11.70
2022-09-14T23:56:49.766Z,12.38
